Time;durP1;ratioP1;P1;durP2;ratioP2;P2;SDS_P1;SDS_P2;PMS_P1;PMS_P2;Temp;Humidity;BMP_temperature;BMP_pressure;BME280_temperature;BME280_humidity;BME280_pressure;Samples;Min_cycle;Max_cycle;Signal;HPM_P1;HPM_P2
2023/11/15 00:00:05;;;;;;;5.53;5.05;;;8.00;99.90;;;;;;5060755;28;20211;-74
2023/11/15 00:02:35;;;;;;;5.32;4.93;;;8.00;99.90;;;;;;5060196;28;20214;-73
2023/11/15 00:05:02;;;;;;;5.70;5.25;;;8.00;99.90;;;;;;5059284;28;20265;-74
2023/11/15 00:07:31;;;;;;;4.85;4.43;;;8.00;99.90;;;;;;5046859;28;20198;-74
2023/11/15 00:09:58;;;;;;;4.65;4.25;;;8.10;99.90;;;;;;5041702;28;20799;-74
2023/11/15 00:12:26;;;;;;;4.35;4.05;;;8.10;99.90;;;;;;5061128;28;20226;-73
2023/11/15 00:14:53;;;;;;;5.22;4.82;;;8.20;99.90;;;;;;5056798;28;20199;-74
2023/11/15 00:17:21;;;;;;;4.85;4.45;;;8.20;99.90;;;;;;5027407;28;20198;-73
2023/11/15 00:19:51;;;;;;;4.93;4.53;;;8.20;99.90;;;;;;5061029;28;20202;-74
2023/11/15 00:22:18;;;;;;;5.50;5.00;;;8.20;99.90;;;;;;5058853;28;20799;-73
2023/11/15 00:24:45;;;;;;;5.20;4.68;;;8.20;99.90;;;;;;5060527;28;20268;-74
2023/11/15 00:27:13;;;;;;;5.20;4.75;;;8.20;99.90;;;;;;5061131;28;20202;-74
2023/11/15 00:29:40;;;;;;;5.22;4.82;;;8.10;99.90;;;;;;5060602;28;20207;-74
2023/11/15 00:32:07;;;;;;;4.80;4.40;;;8.10;99.90;;;;;;5060146;28;20279;-73
2023/11/15 00:34:34;;;;;;;4.13;3.83;;;8.10;99.90;;;;;;5061398;28;20218;-73
2023/11/15 00:37:02;;;;;;;4.53;4.13;;;8.10;99.90;;;;;;5059621;28;20202;-72
2023/11/15 00:39:30;;;;;;;5.10;4.70;;;8.00;99.90;;;;;;5041008;28;20289;-72
2023/11/15 00:41:57;;;;;;;4.70;4.40;;;7.90;99.90;;;;;;5057511;28;20271;-73
2023/11/15 00:44:25;;;;;;;5.15;4.75;;;7.80;99.90;;;;;;5041171;28;20750;-73
2023/11/15 00:46:52;;;;;;;5.57;5.18;;;7.70;99.90;;;;;;5059278;28;20252;-72
2023/11/15 00:49:20;;;;;;;6.07;5.47;;;7.60;99.90;;;;;;5062134;28;20260;-72
2023/11/15 00:51:47;;;;;;;5.13;4.72;;;7.50;99.90;;;;;;5044396;28;20301;-72
2023/11/15 00:54:16;;;;;;;5.57;5.18;;;7.50;99.90;;;;;;5044585;28;20286;-72
2023/11/15 00:56:43;;;;;;;5.78;5.28;;;7.50;99.90;;;;;;5062843;28;20671;-73
2023/11/15 00:59:10;;;;;;;5.03;4.53;;;7.50;99.90;;;;;;5029370;28;20272;-73
2023/11/15 01:01:38;;;;;;;5.03;4.63;;;7.50;99.90;;;;;;5060821;28;20223;-73
2023/11/15 01:04:06;;;;;;;4.35;4.05;;;7.60;99.90;;;;;;5061658;28;20218;-73
2023/11/15 01:06:33;;;;;;;4.70;4.40;;;7.70;99.90;;;;;;5042588;28;20206;-73
2023/11/15 01:09:03;;;;;;;5.35;4.82;;;7.70;99.90;;;;;;5061738;28;20256;-74
2023/11/15 01:11:31;;;;;;;4.45;4.15;;;7.70;99.90;;;;;;5059358;28;20229;-72
2023/11/15 01:13:58;;;;;;;5.32;4.93;;;7.70;99.90;;;;;;5059652;28;20259;-72
2023/11/15 01:16:27;;;;;;;5.15;4.75;;;7.70;99.90;;;;;;5043367;28;20202;-73
2023/11/15 01:18:54;;;;;;;4.72;4.32;;;7.60;99.90;;;;;;5061064;28;20241;-72
2023/11/15 01:21:21;;;;;;;4.80;4.50;;;7.60;99.90;;;;;;5060999;28;20867;-72
2023/11/15 01:23:49;;;;;;;5.32;4.93;;;7.60;99.90;;;;;;5062009;28;20206;-73
2023/11/15 01:26:16;;;;;;;4.50;4.13;;;7.60;99.90;;;;;;5044154;28;20221;-73
2023/11/15 01:28:45;;;;;;;5.25;4.85;;;7.60;99.90;;;;;;5058254;28;20202;-73
2023/11/15 01:31:12;;;;;;;4.10;3.80;;;7.60;99.90;;;;;;5060387;28;20226;-73
2023/11/15 01:33:39;;;;;;;5.10;3.50;;;7.60;99.90;;;;;;5061321;28;20214;-72
2023/11/15 01:36:07;;;;;;;3.63;3.35;;;7.60;99.90;;;;;;5046507;28;20248;-73
2023/11/15 01:38:36;;;;;;;3.80;3.50;;;7.70;99.90;;;;;;5062378;28;20719;-73
2023/11/15 01:41:04;;;;;;;4.03;3.72;;;7.70;99.90;;;;;;5062727;28;20218;-72
2023/11/15 01:43:31;;;;;;;3.95;3.65;;;7.80;99.90;;;;;;5061501;28;20220;-73
2023/11/15 01:46:00;;;;;;;3.88;3.58;;;7.70;99.90;;;;;;5057927;28;20214;-73
2023/11/15 01:48:27;;;;;;;4.20;3.90;;;7.70;99.90;;;;;;5040766;28;20286;-73
2023/11/15 01:50:54;;;;;;;4.60;4.30;;;7.70;99.90;;;;;;5058123;28;20226;-72
2023/11/15 01:53:21;;;;;;;4.93;4.53;;;7.70;99.90;;;;;;5043280;28;20237;-73
2023/11/15 01:55:51;;;;;;;4.72;4.30;;;7.70;99.90;;;;;;5044519;28;20194;-73
2023/11/15 01:58:19;;;;;;;4.53;4.20;;;7.70;99.90;;;;;;5062035;28;20700;-73
2023/11/15 02:00:46;;;;;;;4.20;3.90;;;7.60;99.90;;;;;;5062490;28;20229;-73
2023/11/15 02:03:15;;;;;;;4.50;4.10;;;7.60;99.90;;;;;;5042319;28;20205;-73
2023/11/15 02:05:42;;;;;;;3.90;3.60;;;7.70;99.90;;;;;;5045702;28;20679;-73
2023/11/15 02:08:09;;;;;;;3.90;3.60;;;7.60;99.90;;;;;;5061606;28;20206;-73
2023/11/15 02:10:39;;;;;;;4.10;3.80;;;7.60;99.90;;;;;;5062288;28;20283;-74
2023/11/15 02:13:20;;;;;;;3.55;3.22;;;7.60;99.90;;;;;;5059621;28;20669;-73
2023/11/15 02:15:48;;;;;;;3.80;3.53;;;7.70;99.90;;;;;;5061060;28;20699;-72
2023/11/15 02:18:17;;;;;;;4.60;4.22;;;7.70;99.90;;;;;;5061001;28;20198;-73
2023/11/15 02:20:44;;;;;;;3.92;3.63;;;7.80;99.90;;;;;;5060171;28;20218;-73
2023/11/15 02:23:14;;;;;;;4.78;4.47;;;7.80;99.90;;;;;;5043300;28;20288;-74
2023/11/15 02:25:42;;;;;;;5.63;5.18;;;7.70;99.90;;;;;;5060416;28;20216;-73
2023/11/15 02:28:10;;;;;;;5.03;4.57;;;7.70;99.90;;;;;;5043111;28;20263;-74
2023/11/15 02:30:37;;;;;;;4.70;4.30;;;7.60;99.90;;;;;;5061994;28;20222;-73
2023/11/15 02:33:04;;;;;;;4.47;4.18;;;7.50;99.90;;;;;;5044118;28;20290;-73
2023/11/15 02:35:32;;;;;;;4.00;3.70;;;7.50;99.90;;;;;;5060587;28;20906;-73
2023/11/15 02:37:59;;;;;;;4.07;3.78;;;7.50;99.90;;;;;;5059783;28;20671;-73
2023/11/15 02:40:26;;;;;;;4.10;3.80;;;7.50;99.90;;;;;;5062452;28;20288;-72
2023/11/15 02:42:56;;;;;;;4.10;3.78;;;7.60;99.90;;;;;;5062808;28;20752;-73
2023/11/15 02:45:23;;;;;;;4.15;3.85;;;7.60;99.90;;;;;;5041504;28;20193;-73
2023/11/15 02:47:50;;;;;;;4.68;4.28;;;7.70;99.90;;;;;;5060592;28;20224;-73
2023/11/15 02:50:17;;;;;;;4.40;4.10;;;7.70;99.90;;;;;;5043421;28;20194;-72
2023/11/15 02:52:45;;;;;;;4.15;3.85;;;7.60;99.90;;;;;;5061529;28;20194;-73
2023/11/15 02:55:12;;;;;;;4.38;4.07;;;7.60;99.90;;;;;;5056826;28;20205;-72
2023/11/15 02:57:40;;;;;;;4.90;4.50;;;7.50;99.90;;;;;;5060506;28;20683;-73
2023/11/15 03:00:10;;;;;;;5.28;4.78;;;7.50;99.90;;;;;;5062329;28;20283;-72
2023/11/15 03:02:38;;;;;;;4.30;4.00;;;7.50;99.90;;;;;;5057984;28;20202;-72
2023/11/15 03:05:06;;;;;;;4.55;4.15;;;7.40;99.90;;;;;;5062384;28;20219;-72
2023/11/15 03:07:34;;;;;;;3.83;3.55;;;7.50;99.90;;;;;;5060559;28;20252;-72
2023/11/15 03:10:02;;;;;;;4.40;4.10;;;7.50;99.90;;;;;;5058516;28;20210;-72
2023/11/15 03:12:30;;;;;;;4.00;3.75;;;7.50;99.90;;;;;;5061200;28;20229;-72
2023/11/15 03:14:57;;;;;;;4.32;4.00;;;7.60;99.90;;;;;;5058398;28;20210;-72
2023/11/15 03:17:26;;;;;;;4.30;3.90;;;7.60;99.90;;;;;;5042499;28;20207;-72
2023/11/15 03:19:52;;;;;;;4.28;3.97;;;7.60;99.90;;;;;;5062046;28;20276;-72
2023/11/15 03:22:20;;;;;;;3.95;3.65;;;7.60;99.90;;;;;;5061247;28;20934;-73
2023/11/15 03:24:47;;;;;;;4.85;4.45;;;7.60;99.90;;;;;;5062197;28;20206;-73
2023/11/15 03:27:14;;;;;;;4.60;4.30;;;7.60;99.90;;;;;;5064004;28;20633;-72
2023/11/15 03:29:42;;;;;;;4.50;4.20;;;7.60;99.90;;;;;;5047784;28;20206;-73
2023/11/15 03:32:10;;;;;;;4.13;3.83;;;7.60;99.90;;;;;;5064565;28;20275;-72
2023/11/15 03:34:41;;;;;;;4.30;4.00;;;7.60;99.90;;;;;;5062617;28;20244;-72
2023/11/15 03:37:09;;;;;;;4.57;4.22;;;7.60;99.90;;;;;;5060943;28;20205;-71
2023/11/15 03:39:37;;;;;;;4.30;4.00;;;7.60;99.90;;;;;;5062937;28;20266;-72
2023/11/15 03:42:07;;;;;;;4.45;4.05;;;7.60;99.90;;;;;;5063374;28;20223;-72
2023/11/15 03:44:34;;;;;;;4.38;4.07;;;7.50;99.90;;;;;;5045578;28;20210;-73
2023/11/15 03:47:02;;;;;;;5.05;4.63;;;7.50;99.90;;;;;;5062944;28;20206;-72
2023/11/15 03:49:29;;;;;;;5.28;4.05;;;7.50;99.90;;;;;;5060572;28;20202;-73
2023/11/15 03:51:58;;;;;;;4.65;4.25;;;7.50;99.90;;;;;;5062874;28;20218;-73
2023/11/15 03:54:25;;;;;;;4.68;4.38;;;7.50;99.90;;;;;;5043187;28;20278;-73
2023/11/15 03:56:52;;;;;;;5.65;5.15;;;7.50;99.90;;;;;;5063004;28;20206;-73
2023/11/15 03:59:19;;;;;;;4.82;4.43;;;7.50;99.90;;;;;;5063027;28;20210;-73
2023/11/15 04:01:48;;;;;;;6.10;5.60;;;7.50;99.90;;;;;;5042651;28;20221;-73
2023/11/15 04:04:15;;;;;;;5.57;4.57;;;7.50;99.90;;;;;;5063541;28;20206;-73
2023/11/15 04:06:42;;;;;;;5.53;5.03;;;7.50;99.90;;;;;;5044851;28;20281;-72
2023/11/15 04:09:11;;;;;;;5.30;4.90;;;7.50;99.90;;;;;;5065319;28;20220;-73
2023/11/15 04:11:40;;;;;;;5.85;5.30;;;7.60;99.90;;;;;;5062084;28;20595;-73
2023/11/15 04:14:07;;;;;;;5.07;4.68;;;7.60;99.90;;;;;;5063286;28;20205;-73
2023/11/15 04:16:34;;;;;;;5.22;4.82;;;7.50;99.90;;;;;;5064723;28;20210;-73
2023/11/15 04:19:01;;;;;;;4.80;4.50;;;7.50;99.90;;;;;;5064224;28;20225;-73
2023/11/15 04:21:29;;;;;;;4.80;4.35;;;7.50;99.90;;;;;;5042687;28;20222;-72
2023/11/15 04:23:56;;;;;;;4.60;4.25;;;7.60;99.90;;;;;;5062130;28;20233;-73
2023/11/15 04:26:25;;;;;;;4.18;3.88;;;7.60;99.90;;;;;;5062178;28;20199;-73
2023/11/15 04:28:52;;;;;;;4.70;4.40;;;7.70;99.90;;;;;;5038278;28;20207;-74
2023/11/15 04:31:20;;;;;;;4.32;4.03;;;7.80;99.90;;;;;;5061917;28;20599;-73
2023/11/15 04:33:49;;;;;;;4.30;4.00;;;7.80;99.90;;;;;;5044678;28;20198;-73
2023/11/15 04:36:19;;;;;;;4.13;3.72;;;7.80;99.90;;;;;;5044349;28;20198;-73
2023/11/15 04:38:46;;;;;;;5.05;4.65;;;7.80;99.90;;;;;;5029187;28;20289;-73
2023/11/15 04:41:15;;;;;;;4.43;4.13;;;7.90;99.90;;;;;;5063395;28;20365;-74
2023/11/15 04:43:43;;;;;;;4.32;4.03;;;7.90;99.90;;;;;;5061582;28;20207;-73
2023/11/15 04:46:10;;;;;;;5.25;4.20;;;7.90;99.90;;;;;;5062250;28;20675;-74
2023/11/15 04:48:38;;;;;;;4.75;4.45;;;7.90;99.90;;;;;;5046469;28;20202;-73
2023/11/15 04:51:06;;;;;;;4.85;4.45;;;7.90;99.90;;;;;;5060375;28;20703;-73
2023/11/15 04:53:33;;;;;;;5.50;5.10;;;7.90;99.90;;;;;;5060289;28;20222;-73
2023/11/15 04:56:02;;;;;;;5.43;4.90;;;8.00;99.90;;;;;;5043092;28;20250;-74
2023/11/15 04:58:30;;;;;;;5.25;4.85;;;7.90;99.90;;;;;;5046709;28;20198;-73
2023/11/15 05:00:59;;;;;;;5.20;4.80;;;7.90;99.90;;;;;;5044524;28;20264;-73
2023/11/15 05:03:26;;;;;;;4.47;4.18;;;7.90;99.90;;;;;;5062348;28;20771;-73
2023/11/15 05:05:54;;;;;;;4.50;4.20;;;7.90;99.90;;;;;;5060254;28;20703;-73
2023/11/15 05:08:21;;;;;;;4.88;4.47;;;7.90;99.90;;;;;;5060597;28;20276;-73
2023/11/15 05:10:48;;;;;;;4.30;3.97;;;7.90;99.90;;;;;;5061465;28;20222;-73
2023/11/15 05:13:15;;;;;;;4.30;4.00;;;7.90;99.90;;;;;;5062709;28;20205;-72
2023/11/15 05:15:42;;;;;;;4.60;4.30;;;7.80;99.90;;;;;;5062352;28;20198;-73
2023/11/15 05:18:11;;;;;;;4.72;4.32;;;7.90;99.90;;;;;;5061715;28;20256;-73
2023/11/15 05:20:38;;;;;;;4.50;4.18;;;7.90;99.90;;;;;;5040189;28;20740;-73
2023/11/15 05:23:05;;;;;;;4.63;4.32;;;7.90;99.90;;;;;;5063962;28;20195;-74
2023/11/15 05:25:32;;;;;;;4.47;4.18;;;7.90;99.90;;;;;;5057710;28;20233;-73
2023/11/15 05:27:59;;;;;;;5.07;4.68;;;7.90;99.90;;;;;;5061688;28;20704;-73
2023/11/15 05:30:27;;;;;;;5.82;5.32;;;7.90;99.90;;;;;;5062506;28;20202;-74
2023/11/15 05:32:55;;;;;;;5.70;5.30;;;7.90;99.90;;;;;;5041943;28;20289;-73
2023/11/15 05:35:24;;;;;;;5.35;4.95;;;7.90;99.90;;;;;;5057452;28;20205;-73
2023/11/15 05:37:51;;;;;;;5.30;4.90;;;7.90;99.90;;;;;;5060957;28;20206;-73
2023/11/15 05:40:18;;;;;;;5.00;4.60;;;7.80;99.90;;;;;;5061486;28;20214;-73
2023/11/15 05:42:45;;;;;;;4.82;4.53;;;7.80;99.90;;;;;;5062443;28;20267;-73
2023/11/15 05:45:12;;;;;;;4.32;4.03;;;7.80;99.90;;;;;;5028424;28;20198;-73
2023/11/15 05:47:40;;;;;;;5.10;4.80;;;7.80;99.90;;;;;;5058008;28;20742;-73
2023/11/15 05:50:09;;;;;;;5.18;4.78;;;7.80;99.90;;;;;;5060131;28;20278;-73
2023/11/15 05:52:38;;;;;;;4.90;4.50;;;7.80;99.90;;;;;;5061491;28;20313;-74
2023/11/15 05:55:08;;;;;;;4.25;3.95;;;7.80;99.90;;;;;;5043508;28;20292;-73
2023/11/15 05:57:35;;;;;;;4.97;4.57;;;7.80;99.90;;;;;;5058348;28;20203;-73
2023/11/15 06:00:14;;;;;;;5.30;4.90;;;7.80;99.90;;;;;;5062248;28;20210;-73
2023/11/15 06:02:41;;;;;;;4.97;4.68;;;7.80;99.90;;;;;;5044363;28;20210;-72
2023/11/15 06:05:09;;;;;;;5.63;5.22;;;7.70;99.90;;;;;;5060738;28;20194;-73
2023/11/15 06:07:38;;;;;;;5.30;4.90;;;7.70;99.90;;;;;;5060657;28;20198;-74
2023/11/15 06:10:05;;;;;;;5.05;4.65;;;7.60;99.90;;;;;;5061095;28;20203;-73
2023/11/15 06:12:32;;;;;;;5.22;4.82;;;7.50;99.90;;;;;;5057905;28;20242;-74
2023/11/15 06:14:59;;;;;;;4.60;4.30;;;7.50;99.90;;;;;;5058550;28;20224;-73
2023/11/15 06:17:28;;;;;;;4.53;4.22;;;7.50;99.90;;;;;;5057830;28;20198;-73
2023/11/15 06:19:55;;;;;;;4.97;4.57;;;7.50;99.90;;;;;;5043075;28;20214;-72
2023/11/15 06:22:23;;;;;;;4.80;4.47;;;7.50;99.90;;;;;;5061960;28;20222;-73
2023/11/15 06:24:52;;;;;;;4.57;4.28;;;7.60;99.90;;;;;;5059837;28;20883;-73
2023/11/15 06:27:19;;;;;;;4.97;4.35;;;7.60;99.90;;;;;;5043039;28;20252;-74
2023/11/15 06:29:48;;;;;;;4.55;4.25;;;7.60;99.90;;;;;;5041676;28;20234;-73
2023/11/15 06:32:15;;;;;;;4.03;3.72;;;7.60;99.90;;;;;;5063260;28;20598;-73
2023/11/15 06:34:44;;;;;;;4.07;3.78;;;7.60;99.90;;;;;;5060709;28;20206;-72
2023/11/15 06:37:12;;;;;;;5.00;4.60;;;7.60;99.90;;;;;;5060762;28;20202;-74
2023/11/15 06:39:39;;;;;;;4.22;4.03;;;7.60;99.90;;;;;;5062226;28;20202;-73
2023/11/15 06:42:10;;;;;;;4.22;3.95;;;7.60;99.90;;;;;;5041775;28;20229;-73
2023/11/15 06:44:38;;;;;;;4.15;3.85;;;7.60;99.90;;;;;;5060738;28;20209;-73
2023/11/15 06:47:08;;;;;;;4.00;3.80;;;7.70;99.90;;;;;;5062121;28;20255;-73
2023/11/15 06:49:36;;;;;;;4.30;4.00;;;7.70;99.90;;;;;;5063543;28;20206;-73
2023/11/15 06:52:03;;;;;;;4.30;3.90;;;7.70;99.90;;;;;;5062561;28;20225;-73
2023/11/15 06:54:30;;;;;;;4.47;4.13;;;7.80;99.90;;;;;;5060622;28;20259;-73
2023/11/15 06:56:57;;;;;;;3.40;3.20;;;7.80;99.90;;;;;;5062738;28;20249;-73
2023/11/15 06:59:26;;;;;;;4.35;3.95;;;7.80;99.90;;;;;;5043471;28;20285;-73
2023/11/15 07:01:54;;;;;;;4.40;4.03;;;7.90;99.90;;;;;;5064749;28;20232;-73
2023/11/15 07:04:22;;;;;;;4.03;3.72;;;7.90;99.90;;;;;;5063259;28;20202;-74
2023/11/15 07:06:49;;;;;;;4.35;4.05;;;7.90;99.90;;;;;;5030895;28;20206;-73
2023/11/15 07:09:18;;;;;;;4.53;4.20;;;8.00;99.90;;;;;;5064994;28;20221;-73
2023/11/15 07:11:46;;;;;;;5.13;4.65;;;8.00;99.90;;;;;;5064846;28;20266;-73
2023/11/15 07:14:15;;;;;;;5.30;4.90;;;8.10;99.90;;;;;;5067215;28;20206;-73
2023/11/15 07:16:56;;;;;;;4.65;4.25;;;8.20;99.90;;;;;;5045483;28;20299;-72
2023/11/15 07:19:24;;;;;;;4.20;3.90;;;8.20;99.90;;;;;;5062500;28;20883;-74
2023/11/15 07:21:52;;;;;;;3.90;3.60;;;8.30;99.90;;;;;;5061378;28;20283;-73
2023/11/15 07:24:19;;;;;;;4.72;4.43;;;8.30;99.90;;;;;;5064648;28;20202;-74
2023/11/15 07:26:48;;;;;;;5.18;4.78;;;8.40;99.90;;;;;;5065220;28;20279;-74
2023/11/15 07:29:19;;;;;;;4.18;3.88;;;8.40;99.90;;;;;;5062918;28;20202;-72
2023/11/15 07:31:52;;;;;;;3.38;3.17;;;8.40;99.90;;;;;;5063250;28;20253;-74
2023/11/15 07:34:22;;;;;;;4.18;3.88;;;8.30;99.90;;;;;;5060829;28;20199;-74
2023/11/15 07:36:49;;;;;;;3.72;3.50;;;8.30;99.90;;;;;;5059485;28;20217;-73
2023/11/15 07:39:18;;;;;;;3.90;3.60;;;8.30;99.90;;;;;;5062895;28;20225;-73
2023/11/15 07:41:45;;;;;;;3.85;3.55;;;8.40;99.90;;;;;;5047658;28;20225;-74
2023/11/15 07:44:15;;;;;;;4.10;3.80;;;8.60;99.90;;;;;;5062068;28;20264;-74
2023/11/15 07:46:42;;;;;;;3.53;3.33;;;9.30;99.90;;;;;;5059975;28;20202;-73
2023/11/15 07:49:18;;;;;;;4.00;3.55;;;10.30;99.90;;;;;;5060326;28;20302;-73
2023/11/15 07:51:45;;;;;;;3.90;3.58;;;11.50;99.90;;;;;;5055304;28;20222;-73
2023/11/15 07:54:13;;;;;;;3.53;3.33;;;12.40;99.90;;;;;;5060400;28;20797;-74
2023/11/15 07:56:41;;;;;;;4.68;4.38;;;13.30;99.90;;;;;;5024800;28;20829;-74
2023/11/15 07:59:08;;;;;;;3.88;3.58;;;14.00;99.90;;;;;;5040466;28;20285;-73
2023/11/15 08:01:37;;;;;;;4.15;3.35;;;14.40;99.90;;;;;;5039481;28;21010;-74
2023/11/15 08:04:06;;;;;;;3.70;3.40;;;14.90;99.90;;;;;;5059295;28;20207;-74
2023/11/15 08:06:36;;;;;;;4.20;3.55;;;15.40;99.90;;;;;;5059630;28;20206;-73
2023/11/15 08:09:04;;;;;;;3.53;3.22;;;15.30;99.90;;;;;;5053500;28;20217;-73
2023/11/15 08:11:35;;;;;;;3.50;3.20;;;15.20;99.90;;;;;;5056776;28;20345;-73
2023/11/15 08:14:06;;;;;;;3.17;2.97;;;15.30;99.90;;;;;;5060446;28;20325;-74
2023/11/15 08:16:33;;;;;;;3.25;3.03;;;15.30;99.90;;;;;;5041716;28;20742;-73
2023/11/15 08:19:01;;;;;;;3.03;2.83;;;15.40;99.90;;;;;;5060220;28;20198;-73
2023/11/15 08:21:29;;;;;;;2.88;2.67;;;15.50;99.90;;;;;;5059200;28;20214;-73
2023/11/15 08:23:58;;;;;;;3.30;2.80;;;16.10;99.90;;;;;;5057646;28;20900;-73
2023/11/15 08:26:26;;;;;;;3.10;2.88;;;16.30;99.90;;;;;;5058573;28;20213;-74
2023/11/15 08:28:53;;;;;;;3.22;2.92;;;16.40;99.90;;;;;;5040143;28;20239;-73
2023/11/15 08:31:23;;;;;;;3.67;3.08;;;16.70;99.90;;;;;;5060225;28;20215;-74
2023/11/15 08:33:50;;;;;;;2.85;2.65;;;16.80;99.90;;;;;;5060264;28;20198;-75
2023/11/15 08:36:17;;;;;;;4.75;2.80;;;16.80;99.90;;;;;;5058684;28;20202;-74
2023/11/15 08:38:44;;;;;;;2.83;2.63;;;16.70;99.90;;;;;;5040873;28;20203;-74
2023/11/15 08:41:16;;;;;;;2.88;2.67;;;16.70;99.90;;;;;;5059342;28;20855;-74
2023/11/15 08:43:43;;;;;;;2.83;2.63;;;16.60;99.90;;;;;;5057173;28;20199;-76
2023/11/15 08:46:10;;;;;;;3.20;2.90;;;16.80;99.90;;;;;;5057824;28;20210;-73
2023/11/15 08:48:37;;;;;;;3.53;3.22;;;16.90;99.90;;;;;;5061586;28;20213;-73
2023/11/15 08:51:05;;;;;;;3.28;3.00;;;17.20;99.90;;;;;;5057861;28;20356;-73
2023/11/15 08:53:32;;;;;;;3.13;2.83;;;17.10;99.90;;;;;;5056402;28;20206;-74
2023/11/15 08:56:01;;;;;;;3.50;2.78;;;17.00;99.90;;;;;;5041233;28;20212;-73
2023/11/15 08:58:30;;;;;;;2.67;2.47;;;17.10;99.90;;;;;;5061676;28;20242;-73
2023/11/15 09:01:01;;;;;;;3.85;2.90;;;17.30;99.90;;;;;;5056956;28;20214;-73
2023/11/15 09:03:28;;;;;;;3.10;2.80;;;17.60;99.90;;;;;;5059373;28;20202;-75
2023/11/15 09:05:55;;;;;;;3.03;2.67;;;18.00;99.90;;;;;;5057106;28;20210;-73
2023/11/15 09:08:22;;;;;;;2.92;2.72;;;19.10;99.90;;;;;;5059246;28;20205;-73
2023/11/15 09:10:50;;;;;;;3.00;2.72;;;20.10;99.90;;;;;;5059440;28;20221;-73
2023/11/15 09:13:18;;;;;;;2.45;2.25;;;21.70;99.90;;;;;;5042468;28;20202;-73
2023/11/15 09:15:47;;;;;;;2.35;2.20;;;23.00;99.90;;;;;;5055742;28;20213;-73
2023/11/15 09:18:15;;;;;;;4.60;2.35;;;24.20;99.90;;;;;;5058473;28;20209;-73
2023/11/15 09:20:43;;;;;;;3.10;2.60;;;25.00;99.90;;;;;;5054946;28;20338;-71
2023/11/15 09:23:13;;;;;;;3.50;3.20;;;25.10;99.90;;;;;;5052152;28;20202;-74
2023/11/15 09:25:40;;;;;;;3.90;3.60;;;24.50;99.90;;;;;;5056691;28;20260;-73
2023/11/15 09:28:07;;;;;;;4.72;3.33;;;23.40;99.90;;;;;;5057043;28;20292;-73
2023/11/15 09:30:35;;;;;;;5.93;3.67;;;22.30;99.90;;;;;;5057160;28;20299;-72
2023/11/15 09:33:05;;;;;;;3.90;3.60;;;21.00;99.90;;;;;;5055304;28;20923;-73
2023/11/15 09:35:36;;;;;;;3.75;3.45;;;19.80;99.90;;;;;;5055757;28;21031;-73
2023/11/15 09:38:04;;;;;;;3.60;3.30;;;19.10;99.90;;;;;;5041553;28;20194;-73
2023/11/15 09:40:32;;;;;;;3.67;2.95;;;18.70;99.90;;;;;;5042316;28;20197;-73
2023/11/15 09:43:00;;;;;;;3.58;3.28;;;18.50;99.90;;;;;;5059792;28;20234;-73
2023/11/15 09:45:27;;;;;;;3.53;3.22;;;18.50;99.90;;;;;;5040381;28;20256;-73
2023/11/15 09:47:58;;;;;;;3.30;3.00;;;18.70;99.90;;;;;;5037896;28;20198;-72
2023/11/15 09:50:33;;;;;;;3.15;2.95;;;18.70;99.90;;;;;;5056361;28;21410;-72
2023/11/15 09:53:05;;;;;;;2.88;2.67;;;18.90;99.90;;;;;;5041706;28;20205;-73
2023/11/15 09:55:33;;;;;;;2.72;2.53;;;19.10;99.90;;;;;;5041125;28;20203;-73
2023/11/15 09:58:00;;;;;;;3.20;2.90;;;19.70;99.90;;;;;;5059630;28;20841;-73
2023/11/15 10:00:29;;;;;;;2.72;2.53;;;20.10;99.90;;;;;;5058690;28;20229;-73
2023/11/15 10:02:58;;;;;;;3.40;3.10;;;20.40;99.90;;;;;;5059400;28;20301;-73
2023/11/15 10:05:28;;;;;;;5.40;2.83;;;20.10;99.90;;;;;;5057212;28;20206;-73
2023/11/15 10:08:10;;;;;;;3.45;2.22;;;19.70;99.90;;;;;;5040297;28;20205;-73
2023/11/15 10:10:38;;;;;;;2.63;2.42;;;19.70;99.90;;;;;;5056923;28;20260;-73
2023/11/15 10:13:12;;;;;;;1.85;1.75;;;19.80;99.90;;;;;;5057195;28;20210;-73
2023/11/15 10:15:39;;;;;;;2.17;1.90;;;19.80;99.90;;;;;;5039041;28;20194;-72
2023/11/15 10:18:11;;;;;;;2.45;2.25;;;19.80;99.90;;;;;;5040642;28;20214;-73
2023/11/15 10:20:41;;;;;;;3.05;2.30;;;19.60;99.90;;;;;;5040369;28;20256;-73
2023/11/15 10:23:10;;;;;;;2.75;2.47;;;19.30;99.90;;;;;;5057277;28;20228;-73
2023/11/15 10:25:50;;;;;;;2.78;2.50;;;19.40;99.90;;;;;;5036996;28;20260;-73
2023/11/15 10:28:21;;;;;;;2.55;2.35;;;19.20;99.90;;;;;;5039215;28;20209;-73
2023/11/15 10:31:01;;;;;;;3.83;2.50;;;19.60;99.90;;;;;;5055427;28;20691;-73
2023/11/15 10:33:31;;;;;;;3.03;2.70;;;19.80;99.90;;;;;;5038816;28;20277;-73
2023/11/15 10:36:15;;;;;;;2.92;2.65;;;19.70;99.90;;;;;;5058207;28;20652;-73
2023/11/15 10:38:44;;;;;;;3.00;2.65;;;19.70;99.90;;;;;;5021190;28;20206;-73
2023/11/15 10:41:16;;;;;;;2.80;2.60;;;19.50;99.90;;;;;;5058897;28;20214;-71
2023/11/15 10:43:46;;;;;;;2.10;2.00;;;19.40;99.90;;;;;;5057357;28;20197;-72
2023/11/15 10:46:16;;;;;;;3.35;2.30;;;19.30;99.90;;;;;;5056978;28;20206;-73
2023/11/15 10:48:47;;;;;;;2.42;2.22;;;19.70;99.90;;;;;;5058237;28;20862;-71
2023/11/15 10:51:23;;;;;;;2.13;2.03;;;19.70;99.90;;;;;;5040723;28;20222;-73
2023/11/15 10:53:51;;;;;;;2.28;2.08;;;20.10;99.90;;;;;;5059991;28;20228;-73
2023/11/15 10:56:19;;;;;;;2.58;2.22;;;20.30;99.90;;;;;;5057674;28;20682;-72
2023/11/15 10:58:50;;;;;;;3.35;1.95;;;20.30;99.90;;;;;;5036771;28;20311;-73
2023/11/15 11:01:18;;;;;;;2.15;1.75;;;20.30;99.90;;;;;;5056345;28;20225;-74
2023/11/15 11:03:47;;;;;;;1.83;1.63;;;20.40;99.90;;;;;;5058033;28;20206;-74
2023/11/15 11:06:24;;;;;;;1.92;1.83;;;20.80;99.90;;;;;;5024358;28;20285;-73
2023/11/15 11:09:10;;;;;;;1.45;1.35;;;21.00;99.90;;;;;;5041151;28;20202;-74
2023/11/15 11:11:43;;;;;;;1.67;1.30;;;21.10;99.90;;;;;;5058040;28;20222;-73
2023/11/15 11:14:18;;;;;;;1.50;1.10;;;21.10;99.90;;;;;;5054940;28;20264;-73
2023/11/15 11:16:46;;;;;;;1.17;1.13;;;21.10;99.90;;;;;;5055728;28;20290;-74
2023/11/15 11:19:16;;;;;;;1.08;1.08;;;21.20;99.90;;;;;;5055468;28;20264;-73
2023/11/15 11:22:12;;;;;;;0.95;0.95;;;21.40;99.90;;;;;;5055107;28;20245;-72
2023/11/15 11:24:42;;;;;;;1.00;1.00;;;21.50;99.90;;;;;;5053673;28;20194;-74
2023/11/15 11:27:34;;;;;;;2.50;1.73;;;21.30;99.90;;;;;;5058499;28;20202;-72
2023/11/15 11:30:19;;;;;;;1.70;1.60;;;20.90;99.90;;;;;;5040612;28;20226;-73
2023/11/15 11:32:49;;;;;;;1.30;1.20;;;21.00;99.90;;;;;;5055139;28;20194;-73
2023/11/15 11:35:34;;;;;;;1.70;1.60;;;21.10;99.90;;;;;;5054375;28;20199;-73
2023/11/15 11:38:03;;;;;;;1.50;1.40;;;21.20;99.90;;;;;;5052319;28;20237;-73
2023/11/15 11:42:25;;;;;;;1.10;1.10;;;21.20;99.90;;;;;;5113169;27;20289;-76
2023/11/15 11:46:30;;;;;;;1.35;1.10;;;21.20;99.90;;;;;;5107685;27;20283;-75
2023/11/15 11:49:00;;;;;;;1.30;1.20;;;21.30;99.90;;;;;;5123227;27;20192;-77
2023/11/15 11:51:28;;;;;;;1.45;1.38;;;21.40;99.90;;;;;;5116099;27;20220;-75
2023/11/15 11:53:55;;;;;;;1.40;1.30;;;21.60;99.90;;;;;;5118774;27;20287;-76
2023/11/15 11:56:23;;;;;;;1.33;1.23;;;21.60;99.90;;;;;;5118157;27;21684;-76
2023/11/15 11:58:50;;;;;;;1.33;1.23;;;21.70;99.90;;;;;;5117208;27;20250;-78
2023/11/15 12:01:17;;;;;;;1.20;1.20;;;21.60;99.90;;;;;;5114216;27;20281;-77
2023/11/15 12:03:58;;;;;;;1.60;1.50;;;21.20;99.90;;;;;;5114869;27;20201;-77
2023/11/15 12:06:25;;;;;;;2.10;1.90;;;20.90;99.90;;;;;;5117864;27;20220;-76
2023/11/15 12:08:53;;;;;;;1.70;1.60;;;20.80;99.90;;;;;;5119769;27;20846;-77
2023/11/15 12:11:22;;;;;;;2.20;2.00;;;20.60;99.90;;;;;;5112370;27;20343;-78
2023/11/15 12:13:51;;;;;;;3.40;1.90;;;20.30;99.90;;;;;;5117120;27;20204;-75
2023/11/15 12:16:19;;;;;;;1.80;1.70;;;19.90;99.90;;;;;;5115135;27;20211;-76
2023/11/15 12:19:07;;;;;;;1.80;1.70;;;19.70;99.90;;;;;;5114733;27;20216;-75
2023/11/15 12:21:37;;;;;;;1.42;1.27;;;19.50;99.90;;;;;;5115222;27;20220;-76
2023/11/15 12:24:09;;;;;;;1.40;1.30;;;19.20;99.90;;;;;;5113774;27;20257;-76
2023/11/15 12:26:47;;;;;;;1.52;1.40;;;19.10;99.90;;;;;;5113510;27;20287;-76
2023/11/15 12:29:23;;;;;;;1.48;1.38;;;19.10;99.90;;;;;;5114114;27;20201;-77
2023/11/15 12:31:52;;;;;;;1.23;1.23;;;18.90;99.90;;;;;;5108659;27;20220;-75
2023/11/15 12:34:21;;;;;;;1.40;1.30;;;19.00;99.90;;;;;;5114448;27;20204;-77
2023/11/15 12:36:49;;;;;;;1.40;1.30;;;19.30;99.90;;;;;;5114488;27;20207;-74
2023/11/15 12:39:17;;;;;;;1.60;1.50;;;19.50;99.90;;;;;;5114890;27;20632;-77
2023/11/15 12:41:48;;;;;;;2.15;1.58;;;19.70;99.90;;;;;;5111790;27;20209;-77
2023/11/15 12:44:16;;;;;;;1.38;1.27;;;19.80;99.90;;;;;;5118442;27;20203;-76
2023/11/15 12:46:44;;;;;;;1.45;1.35;;;19.80;99.90;;;;;;5115645;27;20296;-77
2023/11/15 12:49:14;;;;;;;2.05;1.90;;;19.90;99.90;;;;;;5119958;27;20204;-74
2023/11/15 12:51:49;;;;;;;1.73;1.63;;;20.00;99.90;;;;;;5111556;27;20227;-75
2023/11/15 12:54:16;;;;;;;2.35;1.98;;;19.80;99.90;;;;;;5110453;27;20196;-77
2023/11/15 12:56:43;;;;;;;1.70;1.60;;;19.80;99.90;;;;;;5107115;27;20197;-76
2023/11/15 12:59:14;;;;;;;1.60;1.50;;;19.60;99.90;;;;;;5100825;27;20280;-76
2023/11/15 13:01:45;;;;;;;2.63;2.00;;;19.50;99.90;;;;;;5103077;27;20816;-76
2023/11/15 13:04:14;;;;;;;2.28;2.08;;;19.40;99.90;;;;;;5103225;27;20209;-76